Time;durP1;ratioP1;P1;durP2;ratioP2;P2;SDS_P1;SDS_P2;PMS_P1;PMS_P2;Temp;Humidity;BMP_temperature;BMP_pressure;BME280_temperature;BME280_humidity;BME280_pressure;Samples;Min_cycle;Max_cycle;Signal;HPM_P1;HPM_P2
2022/06/26 00:02:56;;;;;;;8.90;6.28;;;;;;;20.87;100.00;101169.66;10361294;28;20075;-66
2022/06/26 00:07:53;;;;;;;8.50;6.10;;;;;;;20.84;100.00;101170.38;10345046;28;20086;-67
2022/06/26 00:12:49;;;;;;;7.43;6.35;;;;;;;20.77;100.00;101163.56;10354930;28;20082;-67
2022/06/26 00:17:46;;;;;;;10.35;7.18;;;;;;;20.72;100.00;101175.00;10361904;28;20570;-64
2022/06/26 00:22:42;;;;;;;7.15;5.90;;;;;;;20.71;100.00;101181.75;10372230;28;20142;-65
2022/06/26 00:27:39;;;;;;;8.23;5.65;;;;;;;20.68;100.00;101182.50;10356466;28;20051;-64
2022/06/26 00:32:36;;;;;;;8.38;5.72;;;;;;;20.65;100.00;101180.47;10347935;28;20050;-66
2022/06/26 00:37:32;;;;;;;7.85;6.43;;;;;;;20.62;100.00;101170.09;10350565;28;20151;-66
2022/06/26 00:42:29;;;;;;;8.63;6.97;;;;;;;20.56;100.00;101171.59;10348772;28;20069;-66
2022/06/26 00:47:26;;;;;;;10.90;7.15;;;;;;;20.57;100.00;101167.66;10361795;28;20138;-66
2022/06/26 00:52:23;;;;;;;8.35;6.47;;;;;;;20.55;100.00;101169.97;10356554;28;20087;-67
2022/06/26 00:57:21;;;;;;;10.63;6.65;;;;;;;20.52;100.00;101165.19;10367465;27;20889;-65
2022/06/26 01:02:18;;;;;;;8.38;7.05;;;;;;;20.51;100.00;101158.00;10366343;28;20731;-67
2022/06/26 01:07:15;;;;;;;8.32;6.28;;;;;;;20.49;100.00;101154.81;10360938;28;20131;-65
2022/06/26 01:12:11;;;;;;;8.80;6.32;;;;;;;20.51;100.00;101152.44;10361792;28;20137;-67
2022/06/26 01:17:10;;;;;;;8.55;6.40;;;;;;;20.51;100.00;101160.78;10347410;28;20051;-67
2022/06/26 01:22:07;;;;;;;9.00;7.03;;;;;;;20.51;100.00;101169.13;10367652;28;20109;-65
2022/06/26 01:27:04;;;;;;;7.88;6.40;;;;;;;20.51;100.00;101174.69;10357029;28;20097;-64
2022/06/26 01:32:01;;;;;;;7.43;6.22;;;;;;;20.50;100.00;101173.88;10366863;28;20465;-64
2022/06/26 01:36:57;;;;;;;9.55;6.82;;;;;;;20.51;100.00;101175.47;10358107;28;20040;-67
2022/06/26 01:41:54;;;;;;;9.40;6.82;;;;;;;20.51;100.00;101177.44;10366506;27;20048;-66
2022/06/26 01:46:50;;;;;;;7.47;6.40;;;;;;;20.50;100.00;101184.19;10346001;28;20075;-66
2022/06/26 01:51:47;;;;;;;9.80;6.63;;;;;;;20.47;100.00;101180.19;10361623;28;20047;-66
2022/06/26 01:56:43;;;;;;;8.23;6.53;;;;;;;20.43;100.00;101181.31;10356571;28;20083;-64
2022/06/26 02:01:40;;;;;;;7.65;6.20;;;;;;;20.42;100.00;101182.47;10354462;28;20408;-64
2022/06/26 02:06:36;;;;;;;7.45;6.53;;;;;;;20.41;100.00;101180.88;10369358;28;20418;-65
2022/06/26 02:16:48;;;;;;;7.60;6.78;;;;;;;20.42;100.00;101172.16;10352065;28;20070;-64
2022/06/26 02:21:44;;;;;;;7.57;6.88;;;;;;;20.41;100.00;101176.13;10365686;28;20105;-64
2022/06/26 02:26:41;;;;;;;11.80;7.50;;;;;;;20.39;100.00;101173.72;10365299;28;20040;-64
2022/06/26 02:31:37;;;;;;;8.70;7.05;;;;;;;20.36;100.00;101174.47;10347962;28;20078;-67
2022/06/26 02:36:34;;;;;;;7.93;7.03;;;;;;;20.33;100.00;101178.00;10354673;28;20067;-67
2022/06/26 02:41:30;;;;;;;7.40;6.70;;;;;;;20.31;100.00;101183.13;10358422;28;20076;-67
2022/06/26 02:46:27;;;;;;;8.45;7.22;;;;;;;20.26;100.00;101186.22;10354194;28;20769;-67
2022/06/26 02:51:23;;;;;;;9.05;7.25;;;;;;;20.21;100.00;101183.75;10352909;27;20040;-67
2022/06/26 02:56:20;;;;;;;10.02;7.65;;;;;;;20.16;100.00;101181.28;10354635;28;20043;-67
2022/06/26 03:01:16;;;;;;;9.60;7.65;;;;;;;20.12;100.00;101183.19;10355778;28;20079;-64
2022/06/26 03:06:13;;;;;;;9.52;7.43;;;;;;;20.08;100.00;101185.13;10348490;28;20069;-64
2022/06/26 03:11:09;;;;;;;10.55;8.38;;;;;;;20.05;100.00;101185.84;10352274;28;20067;-65
2022/06/26 03:16:05;;;;;;;9.25;7.43;;;;;;;20.01;100.00;101185.81;10353032;28;20075;-64
2022/06/26 03:21:02;;;;;;;9.63;7.90;;;;;;;19.97;100.00;101191.28;10352789;28;20449;-66
2022/06/26 03:25:59;;;;;;;11.88;7.88;;;;;;;19.94;100.00;101194.81;10362585;28;20047;-66
2022/06/26 03:30:55;;;;;;;10.50;7.90;;;;;;;19.91;100.00;101190.00;10375728;28;20043;-66
2022/06/26 03:35:52;;;;;;;12.40;8.18;;;;;;;19.89;100.00;101195.13;10362011;28;20105;-66
2022/06/26 03:40:48;;;;;;;10.00;9.07;;;;;;;19.85;100.00;101194.25;10363915;27;20043;-66
2022/06/26 03:45:45;;;;;;;10.60;8.18;;;;;;;19.82;100.00;101194.19;10356861;28;20482;-66
2022/06/26 03:50:41;;;;;;;10.82;8.13;;;;;;;19.77;100.00;101198.06;10348694;27;20127;-66
2022/06/26 03:55:38;;;;;;;9.52;8.13;;;;;;;19.75;100.00;101194.88;10366156;28;20127;-67
2022/06/26 04:00:35;;;;;;;9.63;7.88;;;;;;;19.75;100.00;101204.00;10367306;28;20044;-66
2022/06/26 04:05:35;;;;;;;10.30;9.20;;;;;;;19.75;100.00;101200.44;10340048;27;20098;-66
2022/06/26 04:10:33;;;;;;;9.15;8.25;;;;;;;19.77;100.00;101206.38;10360830;28;20072;-66
2022/06/26 04:15:31;;;;;;;11.43;8.90;;;;;;;19.80;100.00;101208.44;10333724;28;20068;-66
2022/06/26 04:20:29;;;;;;;8.63;7.68;;;;;;;19.84;100.00;101203.78;10339069;28;20555;-66
2022/06/26 04:25:27;;;;;;;10.77;8.75;;;;;;;19.86;100.00;101200.59;10340075;28;20064;-66
2022/06/26 04:30:24;;;;;;;9.65;8.50;;;;;;;19.87;100.00;101197.47;10346082;28;20071;-66
2022/06/26 04:35:20;;;;;;;10.05;8.15;;;;;;;19.88;100.00;101193.50;10344164;28;20094;-66
2022/06/26 04:40:16;;;;;;;11.50;10.30;;;;;;;19.86;100.00;101203.38;10344457;28;20091;-64
2022/06/26 04:45:13;;;;;;;11.20;9.57;;;;;;;19.91;100.00;101209.44;10345696;28;20667;-64
2022/06/26 04:50:10;;;;;;;10.35;9.10;;;;;;;19.97;100.00;101207.16;10352924;28;20479;-64
2022/06/26 04:55:07;;;;;;;11.05;9.93;;;;;;;19.95;100.00;101215.84;10344385;28;20073;-64
2022/06/26 05:00:11;;;;;;;13.10;10.48;;;;;;;19.95;100.00;101209.50;10348737;28;20523;-66
2022/06/26 05:05:07;;;;;;;13.80;9.18;;;;;;;20.00;100.00;101227.81;10352613;28;20070;-65
2022/06/26 05:10:04;;;;;;;12.07;8.80;;;;;;;20.11;100.00;101224.03;10363201;28;20078;-65
2022/06/26 05:15:01;;;;;;;9.05;8.15;;;;;;;20.17;100.00;101227.31;10348003;28;20071;-65
2022/06/26 05:19:57;;;;;;;10.95;7.90;;;;;;;20.25;100.00;101229.03;10348002;28;20130;-64
2022/06/26 05:24:54;;;;;;;10.70;8.13;;;;;;;20.34;100.00;101228.78;10328963;28;20500;-65
2022/06/26 05:29:51;;;;;;;11.20;7.88;;;;;;;20.44;100.00;101219.00;10326944;27;20098;-65
2022/06/26 05:34:47;;;;;;;10.30;8.43;;;;;;;20.55;100.00;101219.97;10340910;28;20131;-67
2022/06/26 05:39:43;;;;;;;10.73;7.40;;;;;;;20.61;100.00;101224.06;10329466;28;20076;-64
2022/06/26 05:44:40;;;;;;;9.38;6.95;;;;;;;20.74;100.00;101228.22;10322364;28;20147;-63
2022/06/26 05:49:36;;;;;;;9.68;7.22;;;;;;;20.87;100.00;101225.22;10340848;28;20071;-66
2022/06/26 05:54:33;;;;;;;11.70;7.38;;;;;;;21.05;100.00;101223.50;10340979;28;20539;-67
2022/06/26 05:59:29;;;;;;;9.57;5.95;;;;;;;21.26;100.00;101216.56;10351324;28;20056;-65
2022/06/26 06:04:26;;;;;;;9.43;5.93;;;;;;;21.45;100.00;101216.44;10342745;28;20082;-65
2022/06/26 06:09:23;;;;;;;6.82;5.43;;;;;;;21.58;100.00;101208.63;10359159;28;20557;-65
2022/06/26 06:14:19;;;;;;;9.48;5.22;;;;;;;21.63;100.00;101211.88;10362600;28;20106;-66
2022/06/26 06:19:16;;;;;;;9.10;5.68;;;;;;;21.63;100.00;101211.88;10366696;28;20474;-66
2022/06/26 06:24:12;;;;;;;6.80;5.22;;;;;;;21.62;100.00;101220.59;10352062;28;20036;-67
2022/06/26 06:29:09;;;;;;;7.82;5.53;;;;;;;21.62;100.00;101226.97;10362198;28;20064;-66
2022/06/26 06:34:06;;;;;;;6.05;5.00;;;;;;;21.67;100.00;101227.81;10348469;28;20050;-67
2022/06/26 06:39:02;;;;;;;5.45;4.40;;;;;;;21.71;100.00;101228.66;10346115;28;20466;-66
2022/06/26 06:43:59;;;;;;;9.15;4.82;;;;;;;21.76;100.00;101233.88;10338302;28;20132;-66
2022/06/26 06:48:55;;;;;;;6.88;4.55;;;;;;;21.88;100.00;101241.13;10321996;28;20074;-68
2022/06/26 06:53:52;;;;;;;6.93;5.18;;;;;;;21.96;100.00;101243.63;10334907;28;20083;-67
2022/06/26 06:58:48;;;;;;;6.03;4.50;;;;;;;22.05;100.00;101237.75;10332987;28;20075;-67
2022/06/26 07:03:45;;;;;;;6.75;5.10;;;;;;;22.15;100.00;101241.78;10322228;28;20523;-67
2022/06/26 07:08:41;;;;;;;6.70;4.47;;;;;;;22.30;100.00;101248.31;10341416;28;20089;-67
2022/06/26 07:13:39;;;;;;;6.22;4.30;;;;;;;22.44;100.00;101243.66;10318346;28;20136;-68
2022/06/26 07:18:35;;;;;;;7.53;4.05;;;;;;;22.64;100.00;101240.59;10330669;28;20123;-67
2022/06/26 07:23:32;;;;;;;7.88;4.78;;;;;;;22.81;100.00;101245.50;10346654;27;20420;-67
2022/06/26 07:28:28;;;;;;;7.38;4.30;;;;;;;22.99;100.00;101244.81;10342012;28;20076;-67
2022/06/26 07:38:40;;;;;;;5.57;3.60;;;;;;;23.31;100.00;101251.34;10305604;28;20130;-67
2022/06/26 07:43:36;;;;;;;6.18;4.40;;;;;;;23.46;100.00;101254.19;10311688;28;20071;-67
2022/06/26 07:48:33;;;;;;;6.93;4.68;;;;;;;23.62;100.00;101265.78;10316630;28;20088;-67
2022/06/26 07:53:29;;;;;;;5.47;3.75;;;;;;;23.72;100.00;101248.28;10326983;28;20565;-68
2022/06/26 07:58:26;;;;;;;7.82;4.22;;;;;;;23.87;100.00;101259.50;10332992;28;20153;-68
2022/06/26 08:03:24;;;;;;;9.30;4.72;;;;;;;24.04;100.00;101263.53;10329691;28;20083;-69
2022/06/26 08:08:22;;;;;;;6.95;4.75;;;;;;;24.22;100.00;101274.72;10330683;28;20090;-67
2022/06/26 08:13:18;;;;;;;6.85;4.32;;;;;;;24.39;100.00;101268.31;10317014;28;20052;-67
2022/06/26 08:18:15;;;;;;;6.60;3.40;;;;;;;24.54;100.00;101275.53;10317700;28;20080;-67
2022/06/26 08:23:11;;;;;;;5.95;4.10;;;;;;;24.70;100.00;101277.13;10340879;28;20048;-67
2022/06/26 08:28:08;;;;;;;5.50;4.18;;;;;;;24.79;100.00;101274.72;10329599;28;20036;-67
2022/06/26 08:33:04;;;;;;;5.57;3.67;;;;;;;24.95;100.00;101277.88;10321649;28;20722;-67
2022/06/26 08:38:01;;;;;;;6.05;3.63;;;;;;;25.11;100.00;101285.00;10325431;28;20565;-66
2022/06/26 08:43:01;;;;;;;7.43;2.90;;;;;;;25.35;100.00;101283.38;10313636;27;20851;-67
2022/06/26 08:47:59;;;;;;;4.65;1.90;;;;;;;25.52;93.82;101278.91;10337149;28;20105;-67
2022/06/26 08:52:59;;;;;;;5.28;1.60;;;;;;;25.64;87.32;101284.03;10330159;28;20454;-67
2022/06/26 08:57:56;;;;;;;3.40;1.50;;;;;;;25.74;86.38;101288.78;10339039;28;20072;-66
2022/06/26 09:02:52;;;;;;;12.70;2.50;;;;;;;25.75;84.21;101290.38;10332353;28;20072;-71
2022/06/26 09:07:52;;;;;;;3.08;1.50;;;;;;;25.80;83.34;101292.72;10333169;28;20618;-71
2022/06/26 09:12:53;;;;;;;4.10;1.60;;;;;;;25.87;85.57;101296.75;10342323;28;20051;-71
2022/06/26 09:17:57;;;;;;;3.70;1.90;;;;;;;25.93;89.19;101284.69;10333005;28;20037;-71
2022/06/26 09:22:55;;;;;;;2.85;1.55;;;;;;;26.09;87.16;101295.41;10337581;28;20131;-71
2022/06/26 09:27:52;;;;;;;4.28;1.90;;;;;;;26.12;85.15;101297.38;10329280;28;20471;-71
2022/06/26 09:32:52;;;;;;;8.15;1.88;;;;;;;26.19;85.77;101302.13;10335176;28;20040;-71
2022/06/26 09:37:49;;;;;;;6.05;2.00;;;;;;;26.14;86.94;101306.16;10342723;28;20128;-71
2022/06/26 09:42:54;;;;;;;4.35;2.33;;;;;;;26.39;88.66;101308.00;10336413;28;20668;-71
2022/06/26 09:47:52;;;;;;;3.55;1.90;;;;;;;26.79;83.61;101311.28;10325905;28;20124;-71
2022/06/26 09:52:49;;;;;;;4.97;1.98;;;;;;;27.04;82.18;101323.03;10329524;28;20064;-72
2022/06/26 09:57:47;;;;;;;5.72;2.63;;;;;;;27.24;84.59;101330.88;10330677;28;20159;-72
2022/06/26 10:08:05;;;;;;;5.32;2.10;;;;;;;27.65;83.51;101321.53;10354682;28;20039;-72
2022/06/26 10:13:05;;;;;;;3.83;2.03;;;;;;;27.50;79.85;101332.16;10362729;28;20093;-72
2022/06/26 10:18:25;;;;;;;6.13;2.17;;;;;;;28.00;77.47;101333.53;10344563;28;20091;-71
2022/06/26 10:23:35;;;;;;;4.95;2.42;;;;;;;29.15;70.40;101332.47;10337191;28;20118;-72
2022/06/26 10:28:32;;;;;;;24.88;4.07;;;;;;;29.20;65.62;101348.06;10342607;28;20071;-71
2022/06/26 10:33:28;;;;;;;3.72;2.20;;;;;;;28.56;65.86;101362.03;10340192;28;20143;-71
2022/06/26 10:38:27;;;;;;;3.22;1.83;;;;;;;30.09;61.12;101359.50;10345928;28;20052;-71
2022/06/26 10:43:38;;;;;;;4.55;1.88;;;;;;;30.91;52.76;101370.84;10339353;28;20490;-71
2022/06/26 10:48:35;;;;;;;3.42;1.70;;;;;;;30.77;50.71;101374.78;10342603;28;20473;-71
2022/06/26 10:53:38;;;;;;;6.55;4.57;;;;;;;31.28;48.99;101372.25;10347997;28;20052;-71
2022/06/26 10:58:42;;;;;;;3.90;1.73;;;;;;;31.95;46.60;101368.69;10358337;28;20048;-71
2022/06/26 11:03:40;;;;;;;3.90;2.00;;;;;;;31.53;49.23;101360.25;10353649;28;20601;-71
2022/06/26 11:08:51;;;;;;;7.35;2.20;;;;;;;30.58;54.54;101370.84;10353472;28;20119;-71
2022/06/26 11:13:54;;;;;;;4.75;2.50;;;;;;;29.31;59.32;101365.53;10331781;28;20047;-71
2022/06/26 11:18:50;;;;;;;4.18;2.35;;;;;;;28.86;68.46;101368.75;10348844;28;20098;-71
2022/06/26 11:23:51;;;;;;;9.50;3.40;;;;;;;28.63;77.77;101373.16;10317643;28;20068;-71
2022/06/26 11:28:58;;;;;;;5.95;3.25;;;;;;;28.26;82.60;101372.09;10303070;28;20623;-71
2022/06/26 11:33:55;;;;;;;5.97;3.80;;;;;;;27.94;87.15;101385.81;10307341;28;20782;-71
2022/06/26 11:38:54;;;;;;;8.95;4.40;;;;;;;27.46;89.10;101374.34;10323592;28;20041;-71
2022/06/26 11:43:53;;;;;;;7.40;3.35;;;;;;;27.40;91.51;101384.41;10337533;27;20470;-72
2022/06/26 11:48:52;;;;;;;4.93;3.30;;;;;;;27.32;91.53;101366.06;10321698;28;20573;-72
2022/06/26 11:53:50;;;;;;;7.43;3.63;;;;;;;27.57;88.36;101376.22;10331210;28;20083;-72
2022/06/26 11:58:49;;;;;;;6.10;3.70;;;;;;;27.38;86.70;101375.63;10346703;28;20135;-72
2022/06/26 12:03:46;;;;;;;6.75;3.17;;;;;;;28.11;83.96;101379.16;10364575;27;20097;-72
2022/06/26 12:08:46;;;;;;;6.95;3.08;;;;;;;29.26;78.35;101375.28;10350522;28;20036;-72
2022/06/26 12:13:43;;;;;;;4.88;3.00;;;;;;;30.69;68.23;101374.19;10358915;28;20044;-72
2022/06/26 12:18:41;;;;;;;5.47;3.13;;;;;;;31.15;64.81;101391.19;10356660;28;20564;-72
2022/06/26 12:23:38;;;;;;;6.70;2.92;;;;;;;31.61;59.71;101378.59;10343099;28;20093;-72
2022/06/26 12:28:46;;;;;;;6.50;4.35;;;;;;;31.49;64.34;101393.47;10352598;28;20477;-72
2022/06/26 12:33:43;;;;;;;6.22;3.97;;;;;;;30.64;73.28;101405.78;10335622;28;20072;-72
2022/06/26 12:38:42;;;;;;;7.85;4.38;;;;;;;29.09;83.04;101411.00;10350115;28;20070;-72
2022/06/26 12:43:39;;;;;;;8.23;3.95;;;;;;;28.59;88.32;101417.41;10343856;28;20105;-72
2022/06/26 12:48:35;;;;;;;5.88;3.20;;;;;;;28.51;85.73;101415.94;10349320;28;20068;-72
2022/06/26 12:53:32;;;;;;;6.88;3.33;;;;;;;28.16;87.96;101415.22;10344672;28;20553;-72
2022/06/26 12:58:28;;;;;;;6.95;2.97;;;;;;;27.99;89.89;101405.00;10349041;28;20559;-72
2022/06/26 13:03:25;;;;;;;5.78;3.78;;;;;;;27.56;92.56;101411.13;10351493;27;20511;-73
2022/06/26 13:08:21;;;;;;;4.80;3.25;;;;;;;27.59;94.79;101407.47;10350994;28;20051;-73
2022/06/26 13:13:18;;;;;;;5.53;3.30;;;;;;;27.94;94.48;101411.09;10341293;28;20052;-73
2022/06/26 13:18:15;;;;;;;6.50;3.63;;;;;;;28.17;93.21;101408.38;10353860;28;20051;-73
2022/06/26 13:23:11;;;;;;;6.40;3.22;;;;;;;28.36;92.08;101425.78;10355628;28;20135;-73
2022/06/26 13:28:08;;;;;;;5.70;3.92;;;;;;;28.10;91.01;101414.09;10362892;28;20048;-73
2022/06/26 13:33:25;;;;;;;6.20;4.47;;;;;;;28.20;90.95;101410.34;10349833;28;20050;-73
2022/06/26 13:38:21;;;;;;;8.07;2.90;;;;;;;28.03;89.41;101411.38;10347178;28;20076;-74
2022/06/26 13:43:17;;;;;;;6.43;2.70;;;;;;;28.20;88.80;101404.72;10354677;28;20097;-73
2022/06/26 13:48:14;;;;;;;6.25;2.70;;;;;;;27.94;91.61;101399.84;10340994;28;20040;-73
2022/06/26 13:53:11;;;;;;;5.88;2.38;;;;;;;27.72;94.71;101419.78;10344050;28;20134;-73
2022/06/26 13:58:07;;;;;;;4.75;2.83;;;;;;;27.66;93.86;101424.25;10346438;28;20046;-73
2022/06/26 14:03:03;;;;;;;5.30;2.60;;;;;;;27.65;91.77;101425.47;10366727;27;20075;-73
2022/06/26 14:08:01;;;;;;;4.38;2.10;;;;;;;27.58;94.64;101429.16;10359139;28;20458;-73
2022/06/26 14:12:57;;;;;;;5.38;2.33;;;;;;;27.37;94.66;101418.16;10355741;28;20052;-73
2022/06/26 14:17:54;;;;;;;4.47;1.95;;;;;;;27.15;95.69;101428.78;10357716;28;20637;-73
2022/06/26 14:28:06;;;;;;;3.55;1.63;;;;;;;26.65;97.44;101447.63;10331489;28;20704;-73
2022/06/26 14:33:02;;;;;;;4.22;1.80;;;;;;;26.59;99.94;101449.25;10368783;28;20075;-73
2022/06/26 14:37:59;;;;;;;5.20;1.95;;;;;;;26.52;98.07;101451.28;10347439;28;20094;-73
2022/06/26 14:42:55;;;;;;;3.42;1.50;;;;;;;27.01;95.84;101450.13;10356151;28;20070;-73
2022/06/26 14:47:52;;;;;;;5.53;1.80;;;;;;;27.02;94.57;101454.53;10360039;28;20047;-73
2022/06/26 14:52:53;;;;;;;6.47;1.30;;;;;;;26.96;94.80;101456.19;10359187;27;20189;-73
2022/06/26 14:57:50;;;;;;;3.38;1.33;;;;;;;26.83;97.76;101458.72;10342154;28;20467;-73
2022/06/26 15:02:46;;;;;;;3.20;1.60;;;;;;;26.97;99.76;101457.00;10346763;28;20048;-73
2022/06/26 15:07:43;;;;;;;3.90;1.45;;;;;;;27.01;100.00;101463.38;10349003;28;20044;-73
2022/06/26 15:12:41;;;;;;;5.70;1.42;;;;;;;26.85;100.00;101466.69;10371336;28;20624;-74
2022/06/26 15:17:37;;;;;;;4.45;1.40;;;;;;;27.06;100.00;101460.13;10357723;28;20040;-73
2022/06/26 15:22:34;;;;;;;3.65;1.50;;;;;;;27.39;98.20;101444.63;10363248;28;20051;-73
2022/06/26 15:27:31;;;;;;;4.25;1.60;;;;;;;27.51;98.09;101450.91;10343740;28;20055;-73
2022/06/26 15:32:29;;;;;;;4.95;1.17;;;;;;;27.58;99.09;101462.06;10340013;28;20071;-74
2022/06/26 15:37:26;;;;;;;4.45;1.50;;;;;;;27.72;97.04;101456.28;10346132;28;20048;-74
2022/06/26 15:42:22;;;;;;;3.97;1.50;;;;;;;27.63;95.89;101453.19;10343757;28;20043;-73
2022/06/26 15:47:19;;;;;;;4.15;1.30;;;;;;;27.47;96.82;101462.97;10331945;28;20105;-73
2022/06/26 15:52:16;;;;;;;2.92;1.15;;;;;;;27.47;96.66;101473.41;10349033;28;20056;-70
2022/06/26 15:57:12;;;;;;;4.07;1.65;;;;;;;27.88;94.66;101464.19;10338831;28;20044;-73
2022/06/26 16:02:09;;;;;;;4.15;1.50;;;;;;;28.81;89.24;101451.66;10360660;28;20048;-74
2022/06/26 16:07:06;;;;;;;4.60;1.17;;;;;;;29.23;84.35;101459.84;10343421;28;20483;-74
2022/06/26 16:12:02;;;;;;;2.65;1.10;;;;;;;30.09;79.92;101452.53;10340839;27;20460;-73
2022/06/26 16:16:59;;;;;;;4.10;1.33;;;;;;;29.89;76.72;101436.44;10340879;28;20567;-73
2022/06/26 16:27:11;;;;;;;2.72;1.40;;;;;;;28.50;84.57;101442.47;10335922;28;20131;-70
2022/06/26 16:32:07;;;;;;;4.18;1.65;;;;;;;28.13;84.84;101447.00;10350171;28;20044;-70
2022/06/26 16:37:04;;;;;;;2.95;1.63;;;;;;;27.67;87.68;101442.72;10340344;28;20804;-70
2022/06/26 16:42:01;;;;;;;3.50;1.40;;;;;;;27.26;89.93;101446.34;10352173;28;20139;-70
2022/06/26 16:46:57;;;;;;;2.90;1.25;;;;;;;26.83;93.57;101461.53;10362082;28;20097;-70
2022/06/26 16:51:54;;;;;;;4.22;1.80;;;;;;;26.54;94.95;101469.31;10344038;28;20079;-70
2022/06/26 16:56:50;;;;;;;4.38;1.50;;;;;;;26.33;96.87;101463.81;10350099;28;20048;-70
2022/06/26 17:01:47;;;;;;;3.75;1.90;;;;;;;25.99;98.98;101461.56;10342949;28;20043;-70
2022/06/26 17:06:44;;;;;;;3.67;1.45;;;;;;;25.87;99.10;101464.81;10334176;28;20074;-70
2022/06/26 17:11:40;;;;;;;4.38;1.40;;;;;;;25.87;100.00;101476.81;10345280;28;20121;-70
2022/06/26 17:16:37;;;;;;;3.10;1.30;;;;;;;25.82;100.00;101480.78;10338935;28;20128;-70
2022/06/26 17:21:33;;;;;;;4.15;1.20;;;;;;;25.64;100.00;101474.44;10351048;28;20171;-70
2022/06/26 17:26:30;;;;;;;3.30;1.27;;;;;;;25.59;100.00;101484.03;10343825;28;20097;-70
2022/06/26 17:31:26;;;;;;;4.28;1.40;;;;;;;25.48;100.00;101476.88;10350970;28;20098;-70
2022/06/26 17:36:23;;;;;;;3.67;1.50;;;;;;;25.49;100.00;101472.88;10349077;28;20094;-70
2022/06/26 17:41:19;;;;;;;3.45;1.38;;;;;;;25.29;100.00;101476.09;10349731;28;20131;-70
2022/06/26 17:46:16;;;;;;;4.13;1.48;;;;;;;25.17;100.00;101474.47;10352878;28;20074;-70
2022/06/26 17:51:12;;;;;;;3.70;1.50;;;;;;;25.07;100.00;101471.69;10338835;28;20090;-71
2022/06/26 17:56:09;;;;;;;3.15;1.33;;;;;;;25.07;100.00;101468.91;10341351;28;20093;-70
2022/06/26 18:01:08;;;;;;;2.97;1.52;;;;;;;24.95;100.00;101473.69;10342956;28;20080;-70
2022/06/26 18:06:09;;;;;;;4.68;1.60;;;;;;;24.95;100.00;101462.50;10354908;28;20488;-70
2022/06/26 18:11:06;;;;;;;3.90;1.80;;;;;;;25.01;100.00;101464.88;10344655;28;20044;-70
2022/06/26 18:16:04;;;;;;;2.90;1.45;;;;;;;25.08;100.00;101471.28;10352493;28;20040;-70
2022/06/26 18:21:01;;;;;;;4.22;1.27;;;;;;;25.07;100.00;101463.31;10338717;28;20439;-70
2022/06/26 18:25:57;;;;;;;3.58;1.45;;;;;;;24.93;100.00;101476.06;10346531;28;20040;-70
2022/06/26 18:30:55;;;;;;;3.08;1.45;;;;;;;24.96;100.00;101475.28;10336834;28;20041;-73
2022/06/26 18:35:52;;;;;;;5.28;1.70;;;;;;;24.88;100.00;101479.28;10341458;28;20044;-73
2022/06/26 18:40:49;;;;;;;3.47;0.88;;;;;;;24.92;100.00;101473.66;10348159;28;20121;-72
2022/06/26 18:45:45;;;;;;;3.45;1.45;;;;;;;24.91;100.00;101461.69;10338045;28;20075;-73
2022/06/26 18:50:42;;;;;;;3.83;1.20;;;;;;;24.86;100.00;101459.28;10319831;28;20064;-73
2022/06/26 18:55:39;;;;;;;2.75;1.20;;;;;;;24.78;100.00;101468.84;10328028;28;20052;-73
2022/06/26 19:00:36;;;;;;;3.30;1.20;;;;;;;24.75;100.00;101475.25;10327804;28;20138;-73
2022/06/26 19:05:33;;;;;;;3.83;1.67;;;;;;;24.62;100.00;101471.22;10332353;28;20466;-73
2022/06/26 19:10:49;;;;;;;4.00;1.30;;;;;;;24.53;100.00;101469.63;10326733;28;20052;-73
2022/06/26 19:15:46;;;;;;;2.10;0.95;;;;;;;24.50;100.00;101470.41;10334417;28;20117;-73
2022/06/26 19:20:44;;;;;;;3.40;1.00;;;;;;;24.38;100.00;101473.53;10355463;28;20053;-72
2022/06/26 19:25:46;;;;;;;4.13;1.67;;;;;;;24.33;100.00;101487.91;10349991;28;20047;-73
2022/06/26 19:30:43;;;;;;;3.80;1.60;;;;;;;24.29;100.00;101487.09;10355739;28;20043;-73
2022/06/26 19:35:40;;;;;;;6.28;2.13;;;;;;;24.21;100.00;101496.66;10350873;28;20094;-73
2022/06/26 19:40:37;;;;;;;4.38;1.52;;;;;;;24.10;100.00;101497.38;10331003;28;20121;-73
2022/06/26 19:45:33;;;;;;;3.97;1.83;;;;;;;24.05;100.00;101500.56;10326111;28;20401;-73
2022/06/26 19:50:37;;;;;;;4.40;1.58;;;;;;;23.92;100.00;101502.06;10331026;28;20756;-72
2022/06/26 19:55:35;;;;;;;3.58;2.00;;;;;;;23.96;100.00;101486.16;10323792;28;20592;-68
2022/06/26 20:00:35;;;;;;;5.30;1.55;;;;;;;23.92;100.00;101485.31;10328319;28;20067;-69
2022/06/26 20:05:31;;;;;;;4.63;1.63;;;;;;;23.79;100.00;101486.84;10328995;28;20661;-69
2022/06/26 20:10:28;;;;;;;2.95;1.55;;;;;;;23.70;100.00;101484.38;10331587;28;20123;-70
2022/06/26 20:15:25;;;;;;;3.08;1.60;;;;;;;23.62;100.00;101502.28;10322247;28;20086;-70
2022/06/26 20:20:22;;;;;;;4.00;1.90;;;;;;;23.49;100.00;101501.78;10321306;28;20052;-71
2022/06/26 20:25:18;;;;;;;5.05;1.90;;;;;;;23.36;100.00;101503.28;10333499;28;20853;-70
2022/06/26 20:30:15;;;;;;;3.50;1.45;;;;;;;23.30;100.00;101503.66;10323686;28;20123;-71
2022/06/26 20:35:11;;;;;;;4.15;1.95;;;;;;;23.29;100.00;101504.81;10324200;28;20476;-70
2022/06/26 20:40:09;;;;;;;3.45;2.00;;;;;;;23.22;100.00;101501.19;10326273;28;20586;-71
2022/06/26 20:45:06;;;;;;;3.55;1.58;;;;;;;23.18;100.00;101512.28;10363862;28;20507;-66
2022/06/26 20:50:03;;;;;;;4.10;1.80;;;;;;;23.06;100.00;101515.38;10359377;28;20070;-65
2022/06/26 20:55:00;;;;;;;9.43;1.92;;;;;;;23.06;100.00;101504.22;10346014;28;20056;-67
2022/06/26 20:59:57;;;;;;;5.00;2.00;;;;;;;22.81;100.00;101496.41;10341060;28;20555;-70
2022/06/26 21:04:53;;;;;;;4.60;1.85;;;;;;;22.79;100.00;101487.63;10363446;28;20048;-70
2022/06/26 21:09:51;;;;;;;5.05;1.98;;;;;;;22.59;100.00;101494.56;10348224;28;20044;-70
2022/06/26 21:14:47;;;;;;;3.85;1.80;;;;;;;22.58;100.00;101473.44;10341499;28;20066;-70
2022/06/26 21:19:44;;;;;;;4.40;2.05;;;;;;;22.51;100.00;101476.16;10348459;28;20089;-67
2022/06/26 21:24:40;;;;;;;5.90;2.13;;;;;;;22.47;100.00;101493.66;10354010;28;20052;-66
2022/06/26 21:29:36;;;;;;;3.10;1.90;;;;;;;22.39;100.00;101491.94;10354323;27;20091;-66
2022/06/26 21:34:33;;;;;;;4.20;2.08;;;;;;;22.29;100.00;101480.69;10344286;28;20080;-66
2022/06/26 21:39:29;;;;;;;3.75;1.60;;;;;;;22.29;100.00;101484.28;10340184;28;20569;-71
2022/06/26 21:44:26;;;;;;;4.20;2.30;;;;;;;22.31;100.00;101479.13;10347048;28;20131;-71
2022/06/26 21:49:22;;;;;;;4.85;2.00;;;;;;;22.16;100.00;101478.13;10353815;28;20032;-72
2022/06/26 21:54:19;;;;;;;4.00;1.90;;;;;;;22.08;100.00;101465.31;10354665;27;20084;-72
2022/06/26 21:59:15;;;;;;;4.75;2.15;;;;;;;22.05;100.00;101461.28;10356139;28;20503;-71
2022/06/26 22:04:12;;;;;;;4.72;2.00;;;;;;;21.88;100.00;101450.72;10375267;28;20055;-71
2022/06/26 22:09:08;;;;;;;5.05;1.65;;;;;;;21.97;100.00;101447.66;10365778;28;20054;-70
2022/06/26 22:14:05;;;;;;;5.53;1.98;;;;;;;21.93;100.00;101442.06;10350064;28;20451;-64
2022/06/26 22:19:01;;;;;;;3.28;1.70;;;;;;;21.85;100.00;101445.91;10361550;28;20044;-65
2022/06/26 22:23:58;;;;;;;3.90;1.70;;;;;;;21.74;100.00;101439.41;10360238;28;20063;-68
2022/06/26 22:28:54;;;;;;;3.30;1.75;;;;;;;21.75;100.00;101441.81;10362121;28;20123;-68
2022/06/26 22:33:51;;;;;;;3.55;1.63;;;;;;;21.61;100.00;101431.28;10361543;28;20064;-68
2022/06/26 22:38:47;;;;;;;4.55;2.08;;;;;;;21.63;100.00;101411.44;10340772;28;20044;-69
2022/06/26 22:43:44;;;;;;;2.78;1.80;;;;;;;21.60;100.00;101401.03;10351659;28;20491;-69
2022/06/26 22:48:40;;;;;;;4.03;1.98;;;;;;;21.62;100.00;101395.91;10346028;28;20079;-66
2022/06/26 22:53:37;;;;;;;4.00;1.63;;;;;;;21.55;100.00;101391.03;10348043;28;20083;-65
2022/06/26 22:58:37;;;;;;;2.92;1.45;;;;;;;21.54;100.00;101374.75;10352530;28;20134;-69
2022/06/26 23:03:33;;;;;;;4.13;1.80;;;;;;;21.43;100.00;101375.38;10351457;28;20067;-67